sensor_id;sensor_type;location;lat;lon;timestamp;P1;durP1;ratioP1;P2;durP2;ratioP2
37507;SDS011;23360;46.936;15.514;2022-07-22T00:02:19;5.40;;;2.55;;
37507;SDS011;23360;46.936;15.514;2022-07-22T00:04:45;5.93;;;2.17;;
37507;SDS011;23360;46.936;15.514;2022-07-22T00:07:13;5.57;;;2.47;;
37507;SDS011;23360;46.936;15.514;2022-07-22T00:09:39;8.18;;;3.08;;
37507;SDS011;23360;46.936;15.514;2022-07-22T00:12:06;8.20;;;2.33;;
37507;SDS011;23360;46.936;15.514;2022-07-22T00:14:32;7.45;;;2.22;;
37507;SDS011;23360;46.936;15.514;2022-07-22T00:16:59;7.90;;;3.47;;
37507;SDS011;23360;46.936;15.514;2022-07-22T00:19:25;5.20;;;2.22;;
37507;SDS011;23360;46.936;15.514;2022-07-22T00:21:52;8.88;;;2.72;;
37507;SDS011;23360;46.936;15.514;2022-07-22T00:24:19;8.88;;;3.05;;
37507;SDS011;23360;46.936;15.514;2022-07-22T00:26:45;8.20;;;2.47;;
37507;SDS011;23360;46.936;15.514;2022-07-22T00:29:12;9.68;;;2.50;;
37507;SDS011;23360;46.936;15.514;2022-07-22T00:31:38;16.52;;;3.00;;
37507;SDS011;23360;46.936;15.514;2022-07-22T00:34:05;6.65;;;2.50;;
37507;SDS011;23360;46.936;15.514;2022-07-22T00:36:31;10.48;;;2.88;;
37507;SDS011;23360;46.936;15.514;2022-07-22T00:38:58;10.43;;;2.70;;
37507;SDS011;23360;46.936;15.514;2022-07-22T00:41:25;7.75;;;2.78;;
37507;SDS011;23360;46.936;15.514;2022-07-22T00:44:02;6.53;;;2.50;;
37507;SDS011;23360;46.936;15.514;2022-07-22T00:46:31;11.38;;;2.85;;
37507;SDS011;23360;46.936;15.514;2022-07-22T00:48:58;7.28;;;2.85;;
37507;SDS011;23360;46.936;15.514;2022-07-22T00:51:26;5.97;;;2.22;;
37507;SDS011;23360;46.936;15.514;2022-07-22T00:53:53;8.13;;;2.45;;
37507;SDS011;23360;46.936;15.514;2022-07-22T00:56:19;9.02;;;3.08;;
37507;SDS011;23360;46.936;15.514;2022-07-22T00:58:47;7.43;;;2.58;;
37507;SDS011;23360;46.936;15.514;2022-07-22T01:01:15;6.20;;;2.60;;
37507;SDS011;23360;46.936;15.514;2022-07-22T01:03:41;7.00;;;2.60;;
37507;SDS011;23360;46.936;15.514;2022-07-22T01:08:41;8.20;;;3.00;;
37507;SDS011;23360;46.936;15.514;2022-07-22T01:11:14;7.15;;;3.33;;
37507;SDS011;23360;46.936;15.514;2022-07-22T01:13:41;5.57;;;2.70;;
37507;SDS011;23360;46.936;15.514;2022-07-22T01:16:08;5.95;;;2.50;;
37507;SDS011;23360;46.936;15.514;2022-07-22T01:18:36;5.80;;;2.75;;
37507;SDS011;23360;46.936;15.514;2022-07-22T01:21:04;6.00;;;2.88;;
37507;SDS011;23360;46.936;15.514;2022-07-22T01:23:31;11.52;;;2.55;;
37507;SDS011;23360;46.936;15.514;2022-07-22T01:25:58;7.57;;;3.35;;
37507;SDS011;23360;46.936;15.514;2022-07-22T01:28:24;12.80;;;4.13;;
37507;SDS011;23360;46.936;15.514;2022-07-22T01:30:51;10.05;;;3.70;;
37507;SDS011;23360;46.936;15.514;2022-07-22T01:33:18;14.30;;;3.90;;
37507;SDS011;23360;46.936;15.514;2022-07-22T01:35:45;6.45;;;3.40;;
37507;SDS011;23360;46.936;15.514;2022-07-22T01:38:16;8.70;;;3.58;;
37507;SDS011;23360;46.936;15.514;2022-07-22T01:40:43;8.38;;;3.70;;
37507;SDS011;23360;46.936;15.514;2022-07-22T01:43:10;12.18;;;4.22;;
37507;SDS011;23360;46.936;15.514;2022-07-22T01:45:37;12.68;;;3.28;;
37507;SDS011;23360;46.936;15.514;2022-07-22T01:48:03;6.60;;;3.28;;
37507;SDS011;23360;46.936;15.514;2022-07-22T01:50:30;16.15;;;3.65;;
37507;SDS011;23360;46.936;15.514;2022-07-22T01:52:56;6.35;;;3.83;;
37507;SDS011;23360;46.936;15.514;2022-07-22T01:55:23;10.27;;;3.95;;
37507;SDS011;23360;46.936;15.514;2022-07-22T01:57:49;8.50;;;3.83;;
37507;SDS011;23360;46.936;15.514;2022-07-22T02:00:16;7.00;;;4.07;;
37507;SDS011;23360;46.936;15.514;2022-07-22T02:02:42;11.07;;;4.18;;
37507;SDS011;23360;46.936;15.514;2022-07-22T02:05:09;11.35;;;4.28;;
37507;SDS011;23360;46.936;15.514;2022-07-22T02:07:36;7.28;;;4.53;;
37507;SDS011;23360;46.936;15.514;2022-07-22T02:10:03;8.88;;;4.03;;
37507;SDS011;23360;46.936;15.514;2022-07-22T02:12:30;10.65;;;4.32;;
37507;SDS011;23360;46.936;15.514;2022-07-22T02:14:56;12.90;;;4.28;;
37507;SDS011;23360;46.936;15.514;2022-07-22T02:17:22;7.85;;;4.15;;
37507;SDS011;23360;46.936;15.514;2022-07-22T02:19:49;8.77;;;3.80;;
37507;SDS011;23360;46.936;15.514;2022-07-22T02:22:16;10.88;;;3.85;;
37507;SDS011;23360;46.936;15.514;2022-07-22T02:24:43;9.10;;;3.97;;
37507;SDS011;23360;46.936;15.514;2022-07-22T02:27:09;6.38;;;3.50;;
37507;SDS011;23360;46.936;15.514;2022-07-22T02:29:36;12.60;;;3.78;;
37507;SDS011;23360;46.936;15.514;2022-07-22T02:32:02;8.40;;;3.63;;
37507;SDS011;23360;46.936;15.514;2022-07-22T02:34:29;13.55;;;3.42;;
37507;SDS011;23360;46.936;15.514;2022-07-22T02:36:57;6.25;;;3.35;;
37507;SDS011;23360;46.936;15.514;2022-07-22T02:39:23;8.45;;;3.20;;
37507;SDS011;23360;46.936;15.514;2022-07-22T02:41:50;7.30;;;3.72;;
37507;SDS011;23360;46.936;15.514;2022-07-22T02:44:16;8.35;;;3.20;;
37507;SDS011;23360;46.936;15.514;2022-07-22T02:46:43;9.55;;;3.28;;
37507;SDS011;23360;46.936;15.514;2022-07-22T02:49:09;5.70;;;3.22;;
37507;SDS011;23360;46.936;15.514;2022-07-22T02:51:36;5.40;;;3.20;;
37507;SDS011;23360;46.936;15.514;2022-07-22T02:54:02;7.97;;;3.72;;
37507;SDS011;23360;46.936;15.514;2022-07-22T02:56:29;10.98;;;4.18;;
37507;SDS011;23360;46.936;15.514;2022-07-22T02:58:56;7.15;;;3.53;;
37507;SDS011;23360;46.936;15.514;2022-07-22T03:01:22;12.40;;;3.92;;
37507;SDS011;23360;46.936;15.514;2022-07-22T03:03:49;19.00;;;4.13;;
37507;SDS011;23360;46.936;15.514;2022-07-22T03:06:16;61.13;;;5.90;;
37507;SDS011;23360;46.936;15.514;2022-07-22T03:08:42;36.45;;;5.72;;
37507;SDS011;23360;46.936;15.514;2022-07-22T03:11:08;24.70;;;5.10;;
37507;SDS011;23360;46.936;15.514;2022-07-22T03:13:35;13.48;;;4.05;;
37507;SDS011;23360;46.936;15.514;2022-07-22T03:16:01;32.38;;;4.93;;
37507;SDS011;23360;46.936;15.514;2022-07-22T03:18:28;11.85;;;3.95;;
37507;SDS011;23360;46.936;15.514;2022-07-22T03:20:55;14.07;;;5.05;;
37507;SDS011;23360;46.936;15.514;2022-07-22T03:23:21;15.30;;;4.70;;
37507;SDS011;23360;46.936;15.514;2022-07-22T03:25:47;12.85;;;5.07;;
37507;SDS011;23360;46.936;15.514;2022-07-22T03:28:14;7.13;;;4.30;;
37507;SDS011;23360;46.936;15.514;2022-07-22T03:30:41;9.10;;;4.65;;
37507;SDS011;23360;46.936;15.514;2022-07-22T03:33:07;17.55;;;4.47;;
37507;SDS011;23360;46.936;15.514;2022-07-22T03:35:34;13.93;;;4.88;;
37507;SDS011;23360;46.936;15.514;2022-07-22T03:38:01;11.38;;;4.63;;
37507;SDS011;23360;46.936;15.514;2022-07-22T03:40:28;9.65;;;4.65;;
37507;SDS011;23360;46.936;15.514;2022-07-22T03:42:54;11.73;;;4.40;;
37507;SDS011;23360;46.936;15.514;2022-07-22T03:45:21;8.43;;;4.90;;
37507;SDS011;23360;46.936;15.514;2022-07-22T03:47:47;16.75;;;4.55;;
37507;SDS011;23360;46.936;15.514;2022-07-22T03:50:14;22.13;;;5.32;;
37507;SDS011;23360;46.936;15.514;2022-07-22T03:52:40;17.13;;;4.85;;
37507;SDS011;23360;46.936;15.514;2022-07-22T03:55:07;17.80;;;4.47;;
37507;SDS011;23360;46.936;15.514;2022-07-22T03:57:33;15.23;;;4.53;;
37507;SDS011;23360;46.936;15.514;2022-07-22T04:00:00;6.90;;;4.32;;
37507;SDS011;23360;46.936;15.514;2022-07-22T04:02:26;9.40;;;5.00;;
37507;SDS011;23360;46.936;15.514;2022-07-22T04:04:53;15.38;;;5.05;;
37507;SDS011;23360;46.936;15.514;2022-07-22T04:07:21;11.43;;;4.53;;
37507;SDS011;23360;46.936;15.514;2022-07-22T04:09:47;12.38;;;4.40;;
37507;SDS011;23360;46.936;15.514;2022-07-22T04:12:14;18.42;;;4.85;;
37507;SDS011;23360;46.936;15.514;2022-07-22T04:14:41;10.95;;;4.65;;
37507;SDS011;23360;46.936;15.514;2022-07-22T04:17:07;8.13;;;4.85;;
37507;SDS011;23360;46.936;15.514;2022-07-22T04:22:07;8.02;;;4.43;;
37507;SDS011;23360;46.936;15.514;2022-07-22T04:24:33;8.50;;;4.43;;
37507;SDS011;23360;46.936;15.514;2022-07-22T04:26:59;13.63;;;4.30;;
37507;SDS011;23360;46.936;15.514;2022-07-22T04:29:27;17.08;;;4.55;;
37507;SDS011;23360;46.936;15.514;2022-07-22T04:31:53;15.73;;;4.85;;
37507;SDS011;23360;46.936;15.514;2022-07-22T04:34:27;10.10;;;4.28;;
37507;SDS011;23360;46.936;15.514;2022-07-22T04:36:55;8.57;;;4.45;;
37507;SDS011;23360;46.936;15.514;2022-07-22T04:39:21;53.33;;;6.45;;
37507;SDS011;23360;46.936;15.514;2022-07-22T04:41:48;13.77;;;3.75;;
37507;SDS011;23360;46.936;15.514;2022-07-22T04:44:14;7.53;;;4.10;;
37507;SDS011;23360;46.936;15.514;2022-07-22T04:46:41;7.53;;;4.20;;
37507;SDS011;23360;46.936;15.514;2022-07-22T04:49:07;8.15;;;4.35;;
37507;SDS011;23360;46.936;15.514;2022-07-22T04:51:34;11.05;;;4.32;;
37507;SDS011;23360;46.936;15.514;2022-07-22T04:54:00;7.53;;;3.90;;
37507;SDS011;23360;46.936;15.514;2022-07-22T04:56:27;13.50;;;4.43;;
37507;SDS011;23360;46.936;15.514;2022-07-22T04:58:53;11.50;;;4.10;;
37507;SDS011;23360;46.936;15.514;2022-07-22T05:01:20;17.77;;;5.15;;
37507;SDS011;23360;46.936;15.514;2022-07-22T05:03:47;8.57;;;4.50;;
37507;SDS011;23360;46.936;15.514;2022-07-22T05:06:14;12.55;;;4.55;;
37507;SDS011;23360;46.936;15.514;2022-07-22T05:08:40;7.55;;;3.80;;
37507;SDS011;23360;46.936;15.514;2022-07-22T05:11:07;10.13;;;4.43;;
37507;SDS011;23360;46.936;15.514;2022-07-22T05:13:33;7.65;;;3.95;;
37507;SDS011;23360;46.936;15.514;2022-07-22T05:16:04;7.50;;;3.90;;
37507;SDS011;23360;46.936;15.514;2022-07-22T05:18:30;7.82;;;3.70;;
37507;SDS011;23360;46.936;15.514;2022-07-22T05:20:57;8.45;;;4.20;;
37507;SDS011;23360;46.936;15.514;2022-07-22T05:23:23;9.73;;;4.60;;
37507;SDS011;23360;46.936;15.514;2022-07-22T05:25:50;8.68;;;4.65;;
37507;SDS011;23360;46.936;15.514;2022-07-22T05:28:19;11.68;;;3.97;;
37507;SDS011;23360;46.936;15.514;2022-07-22T05:30:46;12.02;;;3.25;;
37507;SDS011;23360;46.936;15.514;2022-07-22T05:33:15;9.75;;;3.80;;
37507;SDS011;23360;46.936;15.514;2022-07-22T05:35:43;11.35;;;3.72;;
37507;SDS011;23360;46.936;15.514;2022-07-22T05:38:12;8.10;;;4.07;;
37507;SDS011;23360;46.936;15.514;2022-07-22T05:40:38;11.02;;;3.63;;
37507;SDS011;23360;46.936;15.514;2022-07-22T05:43:05;10.30;;;3.80;;
37507;SDS011;23360;46.936;15.514;2022-07-22T05:45:32;9.85;;;4.50;;
37507;SDS011;23360;46.936;15.514;2022-07-22T05:47:58;9.82;;;3.40;;
37507;SDS011;23360;46.936;15.514;2022-07-22T05:50:25;10.18;;;4.20;;
37507;SDS011;23360;46.936;15.514;2022-07-22T05:52:51;11.35;;;4.50;;
37507;SDS011;23360;46.936;15.514;2022-07-22T05:55:17;11.30;;;4.43;;
37507;SDS011;23360;46.936;15.514;2022-07-22T05:57:44;12.32;;;3.97;;
37507;SDS011;23360;46.936;15.514;2022-07-22T06:00:10;10.55;;;4.32;;
37507;SDS011;23360;46.936;15.514;2022-07-22T06:02:37;12.93;;;4.15;;
37507;SDS011;23360;46.936;15.514;2022-07-22T06:05:04;12.00;;;3.78;;
37507;SDS011;23360;46.936;15.514;2022-07-22T06:07:31;13.18;;;4.32;;
37507;SDS011;23360;46.936;15.514;2022-07-22T06:09:58;10.50;;;3.80;;
37507;SDS011;23360;46.936;15.514;2022-07-22T06:12:24;10.05;;;4.32;;
37507;SDS011;23360;46.936;15.514;2022-07-22T06:14:50;8.45;;;3.63;;
37507;SDS011;23360;46.936;15.514;2022-07-22T06:17:17;9.48;;;4.38;;
37507;SDS011;23360;46.936;15.514;2022-07-22T06:19:43;16.77;;;4.28;;
37507;SDS011;23360;46.936;15.514;2022-07-22T06:22:10;8.93;;;3.67;;
37507;SDS011;23360;46.936;15.514;2022-07-22T06:24:37;6.00;;;3.53;;
37507;SDS011;23360;46.936;15.514;2022-07-22T06:27:03;12.20;;;3.67;;
37507;SDS011;23360;46.936;15.514;2022-07-22T06:29:30;6.95;;;3.65;;
37507;SDS011;23360;46.936;15.514;2022-07-22T06:31:57;7.47;;;2.67;;
37507;SDS011;23360;46.936;15.514;2022-07-22T06:34:24;14.40;;;3.58;;
37507;SDS011;23360;46.936;15.514;2022-07-22T06:36:51;8.95;;;3.30;;
37507;SDS011;23360;46.936;15.514;2022-07-22T06:39:17;8.48;;;3.60;;
37507;SDS011;23360;46.936;15.514;2022-07-22T06:41:44;11.60;;;3.70;;
37507;SDS011;23360;46.936;15.514;2022-07-22T06:44:10;6.65;;;3.60;;
37507;SDS011;23360;46.936;15.514;2022-07-22T06:46:37;5.95;;;3.35;;
37507;SDS011;23360;46.936;15.514;2022-07-22T06:49:06;12.27;;;3.55;;
37507;SDS011;23360;46.936;15.514;2022-07-22T06:51:38;5.88;;;3.53;;
37507;SDS011;23360;46.936;15.514;2022-07-22T06:54:04;7.03;;;3.75;;
37507;SDS011;23360;46.936;15.514;2022-07-22T06:56:31;7.93;;;3.65;;
37507;SDS011;23360;46.936;15.514;2022-07-22T06:58:57;6.50;;;4.07;;
37507;SDS011;23360;46.936;15.514;2022-07-22T07:01:24;8.32;;;4.10;;
37507;SDS011;23360;46.936;15.514;2022-07-22T07:03:51;12.70;;;4.28;;
37507;SDS011;23360;46.936;15.514;2022-07-22T07:06:18;7.80;;;3.80;;
37507;SDS011;23360;46.936;15.514;2022-07-22T07:08:45;6.35;;;3.83;;
37507;SDS011;23360;46.936;15.514;2022-07-22T07:11:12;8.63;;;4.00;;
37507;SDS011;23360;46.936;15.514;2022-07-22T07:13:38;10.93;;;4.28;;
37507;SDS011;23360;46.936;15.514;2022-07-22T07:16:05;9.43;;;4.88;;
37507;SDS011;23360;46.936;15.514;2022-07-22T07:18:32;8.80;;;4.63;;
37507;SDS011;23360;46.936;15.514;2022-07-22T07:20:58;8.27;;;4.35;;
37507;SDS011;23360;46.936;15.514;2022-07-22T07:23:25;12.93;;;4.07;;
37507;SDS011;23360;46.936;15.514;2022-07-22T07:25:51;13.98;;;4.25;;
37507;SDS011;23360;46.936;15.514;2022-07-22T07:28:19;10.10;;;4.28;;
37507;SDS011;23360;46.936;15.514;2022-07-22T07:30:46;10.00;;;3.97;;
37507;SDS011;23360;46.936;15.514;2022-07-22T07:33:12;9.13;;;3.47;;
37507;SDS011;23360;46.936;15.514;2022-07-22T07:35:39;14.25;;;6.95;;
37507;SDS011;23360;46.936;15.514;2022-07-22T07:38:06;15.73;;;4.60;;
37507;SDS011;23360;46.936;15.514;2022-07-22T07:40:32;9.88;;;6.00;;
37507;SDS011;23360;46.936;15.514;2022-07-22T07:42:59;11.93;;;4.78;;
37507;SDS011;23360;46.936;15.514;2022-07-22T07:45:29;8.95;;;4.45;;
37507;SDS011;23360;46.936;15.514;2022-07-22T07:47:56;8.43;;;4.25;;
37507;SDS011;23360;46.936;15.514;2022-07-22T07:50:22;8.27;;;5.18;;
37507;SDS011;23360;46.936;15.514;2022-07-22T07:52:49;10.38;;;4.28;;
37507;SDS011;23360;46.936;15.514;2022-07-22T07:55:18;11.35;;;4.03;;
37507;SDS011;23360;46.936;15.514;2022-07-22T07:58:05;7.07;;;3.85;;
37507;SDS011;23360;46.936;15.514;2022-07-22T08:00:32;12.05;;;4.32;;
37507;SDS011;23360;46.936;15.514;2022-07-22T08:03:00;14.60;;;4.28;;
37507;SDS011;23360;46.936;15.514;2022-07-22T08:05:27;7.47;;;4.57;;
37507;SDS011;23360;46.936;15.514;2022-07-22T08:07:56;8.60;;;4.60;;
37507;SDS011;23360;46.936;15.514;2022-07-22T08:10:23;9.32;;;4.57;;
37507;SDS011;23360;46.936;15.514;2022-07-22T08:13:10;7.45;;;4.53;;
37507;SDS011;23360;46.936;15.514;2022-07-22T08:15:36;8.27;;;4.78;;
37507;SDS011;23360;46.936;15.514;2022-07-22T08:18:03;10.07;;;4.70;;
37507;SDS011;23360;46.936;15.514;2022-07-22T08:20:30;15.50;;;4.75;;
37507;SDS011;23360;46.936;15.514;2022-07-22T08:22:57;9.70;;;4.53;;
37507;SDS011;23360;46.936;15.514;2022-07-22T08:25:24;12.25;;;4.97;;
37507;SDS011;23360;46.936;15.514;2022-07-22T08:27:50;11.10;;;5.05;;
37507;SDS011;23360;46.936;15.514;2022-07-22T08:30:17;9.02;;;4.70;;
37507;SDS011;23360;46.936;15.514;2022-07-22T08:32:44;13.77;;;5.20;;
37507;SDS011;23360;46.936;15.514;2022-07-22T08:35:10;8.13;;;4.40;;
37507;SDS011;23360;46.936;15.514;2022-07-22T08:37:39;9.40;;;5.55;;
37507;SDS011;23360;46.936;15.514;2022-07-22T08:40:07;10.90;;;5.03;;
37507;SDS011;23360;46.936;15.514;2022-07-22T08:42:38;10.25;;;5.18;;
37507;SDS011;23360;46.936;15.514;2022-07-22T08:45:06;9.40;;;4.80;;
37507;SDS011;23360;46.936;15.514;2022-07-22T08:47:43;21.17;;;4.95;;
37507;SDS011;23360;46.936;15.514;2022-07-22T08:50:09;11.27;;;5.15;;
37507;SDS011;23360;46.936;15.514;2022-07-22T08:52:36;10.07;;;4.30;;
37507;SDS011;23360;46.936;15.514;2022-07-22T08:55:06;11.70;;;5.65;;
37507;SDS011;23360;46.936;15.514;2022-07-22T08:57:33;13.98;;;5.30;;
37507;SDS011;23360;46.936;15.514;2022-07-22T09:00:08;10.10;;;5.43;;
37507;SDS011;23360;46.936;15.514;2022-07-22T09:02:36;14.13;;;4.95;;
37507;SDS011;23360;46.936;15.514;2022-07-22T09:05:04;12.45;;;5.25;;
37507;SDS011;23360;46.936;15.514;2022-07-22T09:07:57;12.10;;;4.97;;
37507;SDS011;23360;46.936;15.514;2022-07-22T09:10:23;8.05;;;4.32;;
37507;SDS011;23360;46.936;15.514;2022-07-22T09:12:54;12.68;;;4.88;;
37507;SDS011;23360;46.936;15.514;2022-07-22T09:15:25;12.27;;;4.75;;
37507;SDS011;23360;46.936;15.514;2022-07-22T09:17:53;7.43;;;4.53;;
37507;SDS011;23360;46.936;15.514;2022-07-22T09:20:25;14.18;;;5.38;;
37507;SDS011;23360;46.936;15.514;2022-07-22T09:22:53;11.13;;;5.65;;
37507;SDS011;23360;46.936;15.514;2022-07-22T09:27:50;11.10;;;4.72;;
37507;SDS011;23360;46.936;15.514;2022-07-22T09:30:18;9.10;;;5.30;;
37507;SDS011;23360;46.936;15.514;2022-07-22T09:32:46;7.53;;;4.53;;
37507;SDS011;23360;46.936;15.514;2022-07-22T09:35:15;12.38;;;5.10;;
37507;SDS011;23360;46.936;15.514;2022-07-22T09:40:16;10.25;;;4.60;;
37507;SDS011;23360;46.936;15.514;2022-07-22T09:42:45;9.77;;;4.57;;
37507;SDS011;23360;46.936;15.514;2022-07-22T09:45:12;8.15;;;4.90;;
37507;SDS011;23360;46.936;15.514;2022-07-22T09:47:43;8.15;;;4.20;;
37507;SDS011;23360;46.936;15.514;2022-07-22T09:50:13;15.10;;;4.65;;
37507;SDS011;23360;46.936;15.514;2022-07-22T09:52:40;7.03;;;4.47;;
37507;SDS011;23360;46.936;15.514;2022-07-22T09:55:08;9.98;;;4.50;;
37507;SDS011;23360;46.936;15.514;2022-07-22T09:57:34;12.35;;;4.53;;
37507;SDS011;23360;46.936;15.514;2022-07-22T10:00:02;7.72;;;4.60;;
37507;SDS011;23360;46.936;15.514;2022-07-22T10:02:29;8.32;;;4.60;;
37507;SDS011;23360;46.936;15.514;2022-07-22T10:04:55;8.30;;;4.57;;
37507;SDS011;23360;46.936;15.514;2022-07-22T10:07:25;10.00;;;4.88;;
37507;SDS011;23360;46.936;15.514;2022-07-22T10:09:53;10.13;;;4.45;;
37507;SDS011;23360;46.936;15.514;2022-07-22T10:12:20;7.30;;;4.03;;
37507;SDS011;23360;46.936;15.514;2022-07-22T10:14:47;9.88;;;4.18;;
37507;SDS011;23360;46.936;15.514;2022-07-22T10:17:15;12.25;;;4.60;;
37507;SDS011;23360;46.936;15.514;2022-07-22T10:19:41;7.72;;;4.50;;
37507;SDS011;23360;46.936;15.514;2022-07-22T10:25:01;11.85;;;4.50;;
37507;SDS011;23360;46.936;15.514;2022-07-22T10:30:10;8.33;;;4.17;;
37507;SDS011;23360;46.936;15.514;2022-07-22T10:32:36;12.00;;;4.20;;
37507;SDS011;23360;46.936;15.514;2022-07-22T10:40:12;11.43;;;4.20;;
37507;SDS011;23360;46.936;15.514;2022-07-22T10:45:26;14.75;;;4.85;;
37507;SDS011;23360;46.936;15.514;2022-07-22T10:47:56;7.35;;;4.30;;
37507;SDS011;23360;46.936;15.514;2022-07-22T10:53:07;9.75;;;4.07;;
37507;SDS011;23360;46.936;15.514;2022-07-22T10:55:35;5.90;;;3.63;;
37507;SDS011;23360;46.936;15.514;2022-07-22T10:58:38;6.25;;;3.80;;
37507;SDS011;23360;46.936;15.514;2022-07-22T11:01:01;6.68;;;4.25;;
37507;SDS011;23360;46.936;15.514;2022-07-22T11:03:29;6.72;;;3.65;;
37507;SDS011;23360;46.936;15.514;2022-07-22T11:05:56;11.80;;;4.13;;
37507;SDS011;23360;46.936;15.514;2022-07-22T11:08:23;8.73;;;3.63;;
37507;SDS011;23360;46.936;15.514;2022-07-22T11:10:50;10.38;;;3.92;;
37507;SDS011;23360;46.936;15.514;2022-07-22T11:13:32;8.68;;;3.60;;
37507;SDS011;23360;46.936;15.514;2022-07-22T11:18:25;10.90;;;4.03;;
37507;SDS011;23360;46.936;15.514;2022-07-22T11:21:09;9.20;;;4.30;;
37507;SDS011;23360;46.936;15.514;2022-07-22T11:23:41;7.63;;;3.78;;
37507;SDS011;23360;46.936;15.514;2022-07-22T11:26:08;15.50;;;3.53;;
37507;SDS011;23360;46.936;15.514;2022-07-22T11:28:40;6.43;;;3.78;;
37507;SDS011;23360;46.936;15.514;2022-07-22T11:31:07;5.57;;;3.55;;
37507;SDS011;23360;46.936;15.514;2022-07-22T11:33:33;11.38;;;3.47;;
37507;SDS011;23360;46.936;15.514;2022-07-22T11:36:01;7.75;;;3.78;;
37507;SDS011;23360;46.936;15.514;2022-07-22T11:41:07;9.48;;;3.47;;
37507;SDS011;23360;46.936;15.514;2022-07-22T11:43:38;8.90;;;3.60;;
37507;SDS011;23360;46.936;15.514;2022-07-22T11:46:04;6.68;;;3.75;;
37507;SDS011;23360;46.936;15.514;2022-07-22T11:48:31;6.47;;;3.20;;
37507;SDS011;23360;46.936;15.514;2022-07-22T11:51:04;9.23;;;3.65;;
37507;SDS011;23360;46.936;15.514;2022-07-22T11:53:31;5.43;;;3.33;;
37507;SDS011;23360;46.936;15.514;2022-07-22T11:55:58;8.43;;;3.65;;
37507;SDS011;23360;46.936;15.514;2022-07-22T11:58:35;6.10;;;3.20;;
37507;SDS011;23360;46.936;15.514;2022-07-22T12:01:01;7.07;;;3.53;;
37507;SDS011;23360;46.936;15.514;2022-07-22T12:03:29;6.85;;;3.42;;
37507;SDS011;23360;46.936;15.514;2022-07-22T12:05:56;9.82;;;3.70;;
37507;SDS011;23360;46.936;15.514;2022-07-22T12:08:23;11.32;;;3.80;;
37507;SDS011;23360;46.936;15.514;2022-07-22T12:10:49;9.70;;;3.10;;
37507;SDS011;23360;46.936;15.514;2022-07-22T12:13:16;8.25;;;3.45;;
37507;SDS011;23360;46.936;15.514;2022-07-22T12:15:42;6.40;;;3.38;;
37507;SDS011;23360;46.936;15.514;2022-07-22T12:18:19;5.20;;;3.05;;
37507;SDS011;23360;46.936;15.514;2022-07-22T12:20:46;5.82;;;3.60;;
37507;SDS011;23360;46.936;15.514;2022-07-22T12:23:19;9.73;;;3.80;;
37507;SDS011;23360;46.936;15.514;2022-07-22T12:26:04;13.25;;;4.15;;
37507;SDS011;23360;46.936;15.514;2022-07-22T12:28:30;11.15;;;3.95;;
37507;SDS011;23360;46.936;15.514;2022-07-22T12:30:58;8.25;;;3.72;;
37507;SDS011;23360;46.936;15.514;2022-07-22T12:33:25;9.50;;;4.05;;
37507;SDS011;23360;46.936;15.514;2022-07-22T12:35:59;10.02;;;3.75;;
37507;SDS011;23360;46.936;15.514;2022-07-22T12:38:28;9.25;;;3.55;;
37507;SDS011;23360;46.936;15.514;2022-07-22T12:43:46;7.38;;;3.08;;
37507;SDS011;23360;46.936;15.514;2022-07-22T12:46:12;9.38;;;4.00;;
37507;SDS011;23360;46.936;15.514;2022-07-22T12:48:39;5.70;;;3.35;;
37507;SDS011;23360;46.936;15.514;2022-07-22T12:51:14;6.90;;;3.25;;
37507;SDS011;23360;46.936;15.514;2022-07-22T12:53:41;9.40;;;3.67;;
37507;SDS011;23360;46.936;15.514;2022-07-22T12:56:07;5.50;;;2.88;;
37507;SDS011;23360;46.936;15.514;2022-07-22T12:58:37;9.68;;;3.67;;
37507;SDS011;23360;46.936;15.514;2022-07-22T13:01:06;7.65;;;3.60;;
37507;SDS011;23360;46.936;15.514;2022-07-22T13:03:33;6.57;;;3.20;;
37507;SDS011;23360;46.936;15.514;2022-07-22T13:06:01;9.60;;;3.55;;
37507;SDS011;23360;46.936;15.514;2022-07-22T13:08:28;10.13;;;3.35;;
37507;SDS011;23360;46.936;15.514;2022-07-22T13:11:10;7.95;;;3.42;;
37507;SDS011;23360;46.936;15.514;2022-07-22T13:13:36;7.20;;;3.40;;
37507;SDS011;23360;46.936;15.514;2022-07-22T13:16:03;6.53;;;3.08;;
37507;SDS011;23360;46.936;15.514;2022-07-22T13:18:29;11.88;;;3.78;;
37507;SDS011;23360;46.936;15.514;2022-07-22T13:20:56;7.07;;;3.97;;
37507;SDS011;23360;46.936;15.514;2022-07-22T13:23:25;7.97;;;3.80;;
37507;SDS011;23360;46.936;15.514;2022-07-22T13:25:51;12.50;;;3.60;;
37507;SDS011;23360;46.936;15.514;2022-07-22T13:28:21;6.05;;;3.25;;
37507;SDS011;23360;46.936;15.514;2022-07-22T13:30:47;13.55;;;3.60;;
37507;SDS011;23360;46.936;15.514;2022-07-22T13:33:14;6.40;;;3.33;;
37507;SDS011;23360;46.936;15.514;2022-07-22T13:35:42;7.78;;;3.03;;
37507;SDS011;23360;46.936;15.514;2022-07-22T13:38:09;6.85;;;3.42;;
37507;SDS011;23360;46.936;15.514;2022-07-22T13:40:41;8.27;;;3.58;;
37507;SDS011;23360;46.936;15.514;2022-07-22T13:43:08;7.45;;;3.40;;
37507;SDS011;23360;46.936;15.514;2022-07-22T13:45:40;5.18;;;3.30;;
37507;SDS011;23360;46.936;15.514;2022-07-22T13:48:07;9.68;;;3.83;;
37507;SDS011;23360;46.936;15.514;2022-07-22T13:50:33;6.63;;;3.55;;
37507;SDS011;23360;46.936;15.514;2022-07-22T13:53:00;6.32;;;3.35;;
37507;SDS011;23360;46.936;15.514;2022-07-22T13:55:26;5.82;;;3.53;;
37507;SDS011;23360;46.936;15.514;2022-07-22T13:57:53;10.05;;;3.53;;
37507;SDS011;23360;46.936;15.514;2022-07-22T14:00:19;10.75;;;3.47;;
37507;SDS011;23360;46.936;15.514;2022-07-22T14:02:46;6.28;;;3.28;;
37507;SDS011;23360;46.936;15.514;2022-07-22T14:05:12;9.80;;;3.35;;
37507;SDS011;23360;46.936;15.514;2022-07-22T14:07:42;6.72;;;3.22;;
37507;SDS011;23360;46.936;15.514;2022-07-22T14:10:09;7.88;;;3.42;;
37507;SDS011;23360;46.936;15.514;2022-07-22T14:12:36;9.00;;;3.58;;
37507;SDS011;23360;46.936;15.514;2022-07-22T14:15:03;7.50;;;3.40;;
37507;SDS011;23360;46.936;15.514;2022-07-22T14:17:31;7.55;;;3.67;;
37507;SDS011;23360;46.936;15.514;2022-07-22T14:19:59;8.25;;;3.35;;
37507;SDS011;23360;46.936;15.514;2022-07-22T14:22:27;8.00;;;3.90;;
37507;SDS011;23360;46.936;15.514;2022-07-22T14:24:53;9.57;;;3.70;;
37507;SDS011;23360;46.936;15.514;2022-07-22T14:27:20;5.97;;;3.33;;
37507;SDS011;23360;46.936;15.514;2022-07-22T14:29:46;7.72;;;3.45;;
37507;SDS011;23360;46.936;15.514;2022-07-22T14:32:13;5.90;;;3.28;;
37507;SDS011;23360;46.936;15.514;2022-07-22T14:34:39;9.00;;;3.50;;
37507;SDS011;23360;46.936;15.514;2022-07-22T14:37:07;7.28;;;3.65;;
37507;SDS011;23360;46.936;15.514;2022-07-22T14:39:35;7.80;;;3.63;;
37507;SDS011;23360;46.936;15.514;2022-07-22T14:42:01;7.00;;;3.88;;
37507;SDS011;23360;46.936;15.514;2022-07-22T14:44:28;7.38;;;3.38;;
37507;SDS011;23360;46.936;15.514;2022-07-22T14:46:54;8.05;;;3.67;;
37507;SDS011;23360;46.936;15.514;2022-07-22T14:49:20;7.00;;;3.72;;
37507;SDS011;23360;46.936;15.514;2022-07-22T14:51:47;14.68;;;3.92;;
37507;SDS011;23360;46.936;15.514;2022-07-22T14:54:13;9.77;;;3.53;;
37507;SDS011;23360;46.936;15.514;2022-07-22T14:56:40;8.93;;;3.17;;
37507;SDS011;23360;46.936;15.514;2022-07-22T14:59:07;6.57;;;3.08;;
37507;SDS011;23360;46.936;15.514;2022-07-22T15:01:33;7.90;;;3.75;;
37507;SDS011;23360;46.936;15.514;2022-07-22T15:03:59;8.50;;;3.65;;
37507;SDS011;23360;46.936;15.514;2022-07-22T15:06:27;7.65;;;3.33;;